Etherton, Illinois
Current Conditions -  °F | °C
As of 1:52 AM on Friday 26 Dec 2014 (Local Time) from KMDH Reporting Station
Clear Clear  
Wind Chill: 39°   Ceiling: Unl
Heat Index: 43°   Visibility: 10mi
Dew Point: 33°   Wind: 7mph
Humidity: 68%   Direction: 190°S
Pressure: 30.12"   Gusts: 16mph
Location:  37.776°N, 89.3234°W
Report Text: KMDH 260752Z AUTO 19006G14KT 10SM CLR 06/01 A3012 RMK AO2 SLP200 T00610006
Loading
Personal Weather Stations






























Interactive Weather Map New forecast layout! Learn more

10-Day Weather Forecast

Advertisements
Track Severe Weather on mobile